• Join FlightAware (Why Join?)
  • Login
  • US Flag 
10:36PM EST


 

Airport Tracker/Info


-or-


 

Live Flight TrackerFlight Track Log ✈ N465TP ✈ 06-Feb-2014 ✈ KCOD - KSLC

Flight Track Log - Related Links

Times and Time Zones

All times are in EST time to prevent confusion due to time zone crossing. See the N465TP flight status page for this flight to view local times or setup timezone preferences in your user account.

Time Position Orientation Groundspeed Altitude Reporting Facility
EST Latitude Longitude Course Direction KTS MPH feet Rate Location/Type
01:54PM 44.4311 -109.1614 219° Southwest 140 161 11,700  Level Salt Lake Center
01:55PM 44.3997 -109.1972 219° Southwest 141 162 13,100 1,500 Climbing Salt Lake Center
01:56PM 44.3644 -109.2353 218° Southwest 152 175 14,800 1,500 Climbing Salt Lake Center
01:57PM 44.3303 -109.2711 217° Southwest 155 178 16,200 1,380 Climbing Salt Lake Center
01:58PM 44.2981 -109.3097 221° Southwest 154 177 17,700 1,620 Climbing Salt Lake Center
01:59PM 44.2589 -109.3542 219° Southwest 152 175 19,600 1,440 Climbing Salt Lake Center
02:00PM 44.2258 -109.3925 220° Southwest 153 176 20,700 1,140 Climbing Salt Lake Center
02:01PM 44.1928 -109.4297 219° Southwest 153 176 22,000 1,200 Climbing Salt Lake Center
02:02PM 44.1581 -109.4686 219° Southwest 157 181 23,200 1,200 Climbing Salt Lake Center
02:03PM 44.1192 -109.5122 219° Southwest 161 185 24,600 1,140 Climbing Salt Lake Center
02:04PM 44.0864 -109.5511 220° Southwest 161 185 25,600 660 Climbing Salt Lake Center
02:05PM 44.0433 -109.6003 219° Southwest 179 206 26,000 180 Climbing Salt Lake Center
02:06PM 43.9986 -109.6511 219° Southwest 208 239 26,000 -60 Level Salt Lake Center
02:07PM 43.9436 -109.7097 218° Southwest 220 253 25,900 -60 Descending Salt Lake Center
02:08PM 43.9006 -109.7617 221° Southwest 215 247 25,900  Level Salt Lake Center
02:09PM 43.8472 -109.8186 218° Southwest 216 249 26,000  Climbing Salt Lake Center
02:10PM 43.8025 -109.8683 219° Southwest 215 247 25,900 -60 Descending Salt Lake Center
02:11PM 43.7578 -109.9192 219° Southwest 216 249 25,900  Level Salt Lake Center
02:12PM 43.7058 -109.9764 219° Southwest 215 247 25,900  Level Salt Lake Center
02:13PM 43.6614 -110.0256 219° Southwest 214 246 26,000  Climbing Salt Lake Center
02:15PM 43.6089 -110.0836 219° Southwest 216 249 26,000  Level Salt Lake Center
02:16PM 43.5647 -110.1325 219° Southwest 214 246 26,000  Level Salt Lake Center
02:17PM 43.5128 -110.1892 218° Southwest 213 245 26,000  Level Salt Lake Center
02:18PM 43.4689 -110.2381 219° Southwest 216 249 26,000  Level Salt Lake Center
02:19PM 43.4153 -110.2961 218° Southwest 219 252 26,000  Level Salt Lake Center
02:20PM 43.3692 -110.3464 218° Southwest 220 253 26,000  Level Salt Lake Center
02:21PM 43.3161 -110.4033 218° Southwest 219 252 26,000  Level Salt Lake Center
02:22PM 43.2722 -110.4517 219° Southwest 214 246 26,000  Level Salt Lake Center
02:23PM 43.2244 -110.5056 219° Southwest 222 255 26,000  Level Salt Lake Center
02:24PM 43.1711 -110.5644 219° Southwest 220 253 26,000  Level Salt Lake Center
02:25PM 43.1261 -110.6119 218° Southwest 215 247 26,000  Level Salt Lake Center
02:26PM 43.0725 -110.6686 218° Southwest 218 251 26,000  Level Salt Lake Center
02:27PM 43.0264 -110.7192 219° Southwest 221 254 26,000  Level Salt Lake Center
02:28PM 42.9708 -110.7792 218° Southwest 225 259 26,000  Level Salt Lake Center
02:29PM 42.9236 -110.8289 218° Southwest 225 259 26,000  Level Salt Lake Center
02:30PM 42.8700 -110.8864 218° Southwest 220 253 26,000  Level Salt Lake Center
02:31PM 42.8228 -110.9378 219° Southwest 224 258 26,000  Level Salt Lake Center
02:32PM 42.7753 -110.9883 218° Southwest 225 259 26,000  Level Salt Lake Center
02:33PM 42.7192 -111.0475 218° Southwest 227 261 26,000  Level Salt Lake Center
02:34PM 42.6672 -111.1028 218° Southwest 229 264 26,000  Level Salt Lake Center
02:35PM 42.6172 -111.1567 218° Southwest 230 265 26,000  Level Salt Lake Center
02:36PM 42.5669 -111.2086 217° Southwest 230 265 26,000  Level Salt Lake Center
02:37PM 42.5164 -111.2603 217° Southwest 228 262 26,000  Level Salt Lake Center
02:38PM 42.4667 -111.3131 218° Southwest 229 264 26,000  Level Salt Lake Center
02:39PM 42.4061 -111.3747 217° Southwest 228 262 26,000  Level Salt Lake Center
02:40PM 42.3572 -111.4267 218° Southwest 227 261 26,000  Level Salt Lake Center
02:41PM 42.3058 -111.4806 218° Southwest 233 268 26,000  Level Salt Lake Center
02:42PM 42.2542 -111.5336 217° Southwest 233 268 26,000  Level Salt Lake Center
02:43PM 42.2044 -111.5861 218° Southwest 230 265 26,000  Level Salt Lake Center
02:44PM 42.1547 -111.6381 218° Southwest 226 260 26,000  Level Salt Lake Center
02:45PM 42.1056 -111.6889 217° Southwest 225 259 26,000  Level Salt Lake Center
02:46PM 42.0467 -111.7503 218° Southwest 224 258 26,000  Level Salt Lake Center
02:47PM 41.9972 -111.8003 217° Southwest 224 258 26,000 -540 Level Salt Lake Center
02:49PM 41.9458 -111.8525 217° Southwest 230 265 24,900 -1,380 Descending Salt Lake Center
02:50PM 41.8967 -111.9036 218° Southwest 226 260 23,200 -1,620 Descending Salt Lake Center
02:51PM 41.8481 -111.9536 217° Southwest 222 255 21,600 -1,620 Descending Salt Lake Center
02:52PM 41.7978 -112.0044 217° Southwest 225 259 19,900 -1,860 Descending Salt Lake Center
02:52PM 41.7444 -112.0092 184° South 241 277 18,300 -1,860 Descending Salt Lake Center
02:53PM 41.7344 -112.0183 214° Southwest 232 267 18,000 -2,040 Descending Salt Lake Center
02:54PM 41.6578 -112.0306 187° South 231 266 15,700 -2,340 Descending Salt Lake Center
02:54PM 41.6547 -112.0231 119° Southeast 232 267 15,600 -1,800 Descending Salt Lake Center
02:55PM 41.5961 -112.0408 193° South 223 257 13,900 -1,740 Descending Salt Lake Center
02:55PM 41.5844 -112.0383 171° South 222 255 13,500 -1,500 Descending Salt Lake Center
02:56PM 41.5375 -112.0344 176° South 210 242 12,400 -1,320 Descending Salt Lake Center
02:56PM 41.5308 -112.0283 146° Southeast 207 238 12,300 -420 Descending Salt Lake Center
02:57PM 41.4792 -112.0217 174° South 213 245 12,000 -300 Descending Salt Lake Center
02:57PM 41.4728 -112.0167 150° Southeast 214 246 12,000  Level Salt Lake Center
02:58PM 41.4197 -112.0108 175° South 216 249 12,000  Level Salt Lake Center
02:59PM 41.3600 -112.0006 173° South 217 250 12,000 -300 Level Salt Lake Center
03:00PM 41.2944 -111.9864 171° South 211 243 11,400 -600 Descending Salt Lake Center
03:00PM 41.2906 -111.9883 201° Southwest 208 239 11,400 -420 Level Salt Lake Center
03:01PM 41.2369 -111.9775 171° South 206 237 11,000 -420 Descending Salt Lake Center
03:01PM 41.2331 -111.9789 195° South 208 239 11,000  Level Salt Lake Center
03:02PM 41.1878 -111.9686 170° South 201 231 11,000  Level Salt Lake Center
03:02PM 41.1781 -111.9694 184° South 202 232 11,000 -240 Level Salt Lake Center
03:03PM 41.1300 -111.9600 172° South 211 243 10,800 -300 Descending Salt Lake Center
03:03PM 41.1214 -111.9603 181° South 207 238 10,700 -1,320 Descending Salt Lake Center
03:04PM 41.0744 -111.9619 182° South 194 223 9,500 -1,260 Descending Salt Lake Center
03:04PM 41.0686 -111.9617 178° South 195 224 9,400 -960 Descending Salt Lake Center
03:05PM 41.0064 -111.9622 180° South 191 220 8,300 -900 Descending Salt Lake Center
03:06PM 40.9692 -111.9636 182° South 188 216 7,800 -720 Descending Salt Lake Center
03:06PM 40.9561 -111.9628 177° South 185 213 7,600 -1,200 Descending Salt Lake Center
03:07PM 40.9153 -111.9622 179° South 172 198 6,500 -1,200 Descending Salt Lake Center
03:07PM 40.9083 -111.9619 178° South 175 201 6,400 -900 Descending Salt Lake Center
03:08PM 40.8656 -111.9619 180° South 171 197 5,600 -900 Descending Salt Lake Center
03:08PM 40.8611 -111.9619 180° South 172 198 5,500 -900 Descending Salt Lake Center
03:09PM 40.8206 -111.9633 181° South 157 181 4,700 -900 Descending Salt Lake Center
03:09PM 40.8161 -111.9622 169° South 162 186 4,600 -420 Descending Salt Lake Center
03:10PM 40.7883 -111.9611 178° South 139 160 4,200 -420 Descending Salt Lake Center
03:12PM 40.7833 -111.9667 270° West  Level FlightAware Approximate